sensor_id;sensor_type;location;lat;lon;timestamp;P1;durP1;ratioP1;P2;durP2;ratioP2
41546;SDS011;27271;45.412;10.852;2023-12-14T05:06:26;25.45;;;13.25;;
41546;SDS011;27271;45.412;10.852;2023-12-14T05:09:50;21.15;;;12.23;;
41546;SDS011;27271;45.412;10.852;2023-12-14T05:13:17;25.95;;;13.15;;
41546;SDS011;27271;45.412;10.852;2023-12-14T05:16:40;28.15;;;13.55;;
41546;SDS011;27271;45.412;10.852;2023-12-14T05:20:11;23.02;;;13.48;;
41546;SDS011;27271;45.412;10.852;2023-12-14T05:23:43;24.50;;;13.40;;
41546;SDS011;27271;45.412;10.852;2023-12-14T05:27:25;22.92;;;12.40;;
41546;SDS011;27271;45.412;10.852;2023-12-14T05:30:49;25.33;;;13.13;;
41546;SDS011;27271;45.412;10.852;2023-12-14T05:34:12;24.60;;;13.07;;
41546;SDS011;27271;45.412;10.852;2023-12-14T05:37:34;22.50;;;11.77;;
41546;SDS011;27271;45.412;10.852;2023-12-14T05:40:57;24.83;;;12.93;;
41546;SDS011;27271;45.412;10.852;2023-12-14T05:44:20;22.95;;;12.63;;
41546;SDS011;27271;45.412;10.852;2023-12-14T05:47:45;22.55;;;11.60;;
41546;SDS011;27271;45.412;10.852;2023-12-14T05:51:07;28.95;;;13.77;;
41546;SDS011;27271;45.412;10.852;2023-12-14T05:54:30;22.80;;;12.07;;
41546;SDS011;27271;45.412;10.852;2023-12-14T05:57:55;24.98;;;12.73;;
41546;SDS011;27271;45.412;10.852;2023-12-14T06:01:18;25.13;;;13.30;;
41546;SDS011;27271;45.412;10.852;2023-12-14T06:04:45;24.65;;;13.48;;
41546;SDS011;27271;45.412;10.852;2023-12-14T06:08:07;25.63;;;14.25;;
41546;SDS011;27271;45.412;10.852;2023-12-14T06:11:37;24.23;;;12.98;;
41546;SDS011;27271;45.412;10.852;2023-12-14T06:15:07;27.58;;;13.95;;
41546;SDS011;27271;45.412;10.852;2023-12-14T06:18:30;31.10;;;16.73;;
41546;SDS011;27271;45.412;10.852;2023-12-14T06:21:52;25.63;;;13.40;;
41546;SDS011;27271;45.412;10.852;2023-12-14T06:25:15;23.50;;;12.35;;
41546;SDS011;27271;45.412;10.852;2023-12-14T06:28:37;23.05;;;12.68;;
41546;SDS011;27271;45.412;10.852;2023-12-14T06:31:59;24.00;;;12.27;;
41546;SDS011;27271;45.412;10.852;2023-12-14T06:35:28;26.73;;;14.40;;
41546;SDS011;27271;45.412;10.852;2023-12-14T06:38:51;24.30;;;13.30;;
41546;SDS011;27271;45.412;10.852;2023-12-14T06:42:13;27.55;;;15.20;;
41546;SDS011;27271;45.412;10.852;2023-12-14T06:45:38;30.30;;;14.65;;
41546;SDS011;27271;45.412;10.852;2023-12-14T06:49:00;30.73;;;14.00;;
41546;SDS011;27271;45.412;10.852;2023-12-14T06:52:23;26.42;;;14.13;;
41546;SDS011;27271;45.412;10.852;2023-12-14T06:55:45;29.92;;;15.18;;
41546;SDS011;27271;45.412;10.852;2023-12-14T06:59:07;33.13;;;15.20;;
41546;SDS011;27271;45.412;10.852;2023-12-14T07:02:29;30.60;;;14.90;;
41546;SDS011;27271;45.412;10.852;2023-12-14T07:05:51;25.63;;;13.32;;
41546;SDS011;27271;45.412;10.852;2023-12-14T07:09:13;23.40;;;13.32;;
41546;SDS011;27271;45.412;10.852;2023-12-14T07:12:36;124.28;;;58.03;;
41546;SDS011;27271;45.412;10.852;2023-12-14T07:15:59;126.00;;;44.30;;
41546;SDS011;27271;45.412;10.852;2023-12-14T07:19:21;136.23;;;47.60;;
41546;SDS011;27271;45.412;10.852;2023-12-14T07:22:43;162.40;;;61.45;;
41546;SDS011;27271;45.412;10.852;2023-12-14T07:26:05;89.90;;;39.70;;
41546;SDS011;27271;45.412;10.852;2023-12-14T07:29:30;169.05;;;64.30;;
41546;SDS011;27271;45.412;10.852;2023-12-14T07:33:13;353.70;;;155.98;;
41546;SDS011;27271;45.412;10.852;2023-12-14T07:36:36;35.08;;;18.38;;
41546;SDS011;27271;45.412;10.852;2023-12-14T07:39:58;36.72;;;17.02;;
41546;SDS011;27271;45.412;10.852;2023-12-14T07:43:20;37.15;;;19.27;;
41546;SDS011;27271;45.412;10.852;2023-12-14T07:46:44;33.13;;;17.92;;
41546;SDS011;27271;45.412;10.852;2023-12-14T07:50:06;35.95;;;18.27;;
41546;SDS011;27271;45.412;10.852;2023-12-14T07:53:28;36.42;;;19.55;;
41546;SDS011;27271;45.412;10.852;2023-12-14T07:56:51;38.53;;;17.83;;
41546;SDS011;27271;45.412;10.852;2023-12-14T08:00:13;43.33;;;18.88;;
41546;SDS011;27271;45.412;10.852;2023-12-14T08:03:36;36.00;;;17.35;;
41546;SDS011;27271;45.412;10.852;2023-12-14T08:06:58;54.80;;;17.48;;
41546;SDS011;27271;45.412;10.852;2023-12-14T08:10:20;53.72;;;17.90;;
41546;SDS011;27271;45.412;10.852;2023-12-14T08:13:43;45.85;;;17.35;;
41546;SDS011;27271;45.412;10.852;2023-12-14T08:17:05;72.80;;;17.27;;
41546;SDS011;27271;45.412;10.852;2023-12-14T08:20:27;47.72;;;17.23;;
41546;SDS011;27271;45.412;10.852;2023-12-14T08:23:49;60.47;;;17.65;;
41546;SDS011;27271;45.412;10.852;2023-12-14T08:27:11;46.53;;;18.60;;
41546;SDS011;27271;45.412;10.852;2023-12-14T08:30:34;69.70;;;19.33;;
41546;SDS011;27271;45.412;10.852;2023-12-14T08:33:57;48.83;;;17.30;;
41546;SDS011;27271;45.412;10.852;2023-12-14T08:37:19;43.05;;;16.83;;
41546;SDS011;27271;45.412;10.852;2023-12-14T08:40:41;51.85;;;18.48;;
41546;SDS011;27271;45.412;10.852;2023-12-14T08:44:04;70.32;;;17.58;;
41546;SDS011;27271;45.412;10.852;2023-12-14T08:47:26;125.30;;;18.00;;
41546;SDS011;27271;45.412;10.852;2023-12-14T08:50:48;105.65;;;19.77;;
41546;SDS011;27271;45.412;10.852;2023-12-14T08:54:10;79.22;;;19.00;;
41546;SDS011;27271;45.412;10.852;2023-12-14T08:57:33;84.15;;;19.60;;
41546;SDS011;27271;45.412;10.852;2023-12-14T09:00:55;63.67;;;17.42;;
41546;SDS011;27271;45.412;10.852;2023-12-14T09:04:17;113.32;;;19.45;;
41546;SDS011;27271;45.412;10.852;2023-12-14T09:07:39;85.28;;;18.85;;
41546;SDS011;27271;45.412;10.852;2023-12-14T09:11:02;77.38;;;18.00;;
41546;SDS011;27271;45.412;10.852;2023-12-14T09:14:25;74.03;;;18.80;;
41546;SDS011;27271;45.412;10.852;2023-12-14T09:17:48;83.95;;;18.15;;
41546;SDS011;27271;45.412;10.852;2023-12-14T09:21:10;74.22;;;17.65;;
41546;SDS011;27271;45.412;10.852;2023-12-14T09:24:32;79.03;;;19.15;;
41546;SDS011;27271;45.412;10.852;2023-12-14T09:27:55;149.55;;;21.92;;
41546;SDS011;27271;45.412;10.852;2023-12-14T09:31:17;111.13;;;19.95;;
41546;SDS011;27271;45.412;10.852;2023-12-14T09:34:39;136.60;;;21.67;;
41546;SDS011;27271;45.412;10.852;2023-12-14T09:38:05;129.18;;;21.83;;
41546;SDS011;27271;45.412;10.852;2023-12-14T09:41:29;44.28;;;18.23;;
41546;SDS011;27271;45.412;10.852;2023-12-14T09:44:52;86.60;;;20.92;;
41546;SDS011;27271;45.412;10.852;2023-12-14T09:48:16;144.73;;;23.35;;
41546;SDS011;27271;45.412;10.852;2023-12-14T09:51:40;136.00;;;24.35;;
41546;SDS011;27271;45.412;10.852;2023-12-14T09:55:03;96.63;;;21.85;;
41546;SDS011;27271;45.412;10.852;2023-12-14T09:58:27;77.38;;;22.65;;
41546;SDS011;27271;45.412;10.852;2023-12-14T10:01:49;110.03;;;22.23;;
41546;SDS011;27271;45.412;10.852;2023-12-14T10:05:11;65.78;;;18.58;;
41546;SDS011;27271;45.412;10.852;2023-12-14T10:08:34;70.25;;;18.48;;
41546;SDS011;27271;45.412;10.852;2023-12-14T10:12:06;60.13;;;17.10;;
41546;SDS011;27271;45.412;10.852;2023-12-14T10:15:36;49.50;;;17.90;;
41546;SDS011;27271;45.412;10.852;2023-12-14T10:19:08;48.10;;;17.52;;
41546;SDS011;27271;45.412;10.852;2023-12-14T10:22:32;40.83;;;16.50;;
41546;SDS011;27271;45.412;10.852;2023-12-14T10:25:59;32.05;;;16.58;;
41546;SDS011;27271;45.412;10.852;2023-12-14T10:29:21;39.17;;;19.42;;
41546;SDS011;27271;45.412;10.852;2023-12-14T10:32:52;43.47;;;21.20;;
41546;SDS011;27271;45.412;10.852;2023-12-14T10:36:37;37.45;;;19.13;;
41546;SDS011;27271;45.412;10.852;2023-12-14T10:40:00;41.25;;;19.80;;
41546;SDS011;27271;45.412;10.852;2023-12-14T10:43:27;41.92;;;19.75;;
41546;SDS011;27271;45.412;10.852;2023-12-14T10:47:09;37.83;;;19.48;;
41546;SDS011;27271;45.412;10.852;2023-12-14T10:50:32;46.20;;;19.80;;
41546;SDS011;27271;45.412;10.852;2023-12-14T10:54:02;47.92;;;22.60;;
41546;SDS011;27271;45.412;10.852;2023-12-14T10:57:28;52.97;;;23.33;;
41546;SDS011;27271;45.412;10.852;2023-12-14T11:00:58;54.55;;;24.52;;
41546;SDS011;27271;45.412;10.852;2023-12-14T11:04:23;55.92;;;25.77;;
41546;SDS011;27271;45.412;10.852;2023-12-14T11:07:55;60.30;;;26.05;;
41546;SDS011;27271;45.412;10.852;2023-12-14T11:11:27;65.20;;;28.20;;
41546;SDS011;27271;45.412;10.852;2023-12-14T11:14:50;56.22;;;25.17;;
41546;SDS011;27271;45.412;10.852;2023-12-14T11:21:36;65.03;;;25.30;;
41546;SDS011;27271;45.412;10.852;2023-12-14T11:24:58;58.97;;;24.00;;
41546;SDS011;27271;45.412;10.852;2023-12-14T11:28:20;59.70;;;22.35;;
41546;SDS011;27271;45.412;10.852;2023-12-14T11:31:47;57.13;;;22.05;;
41546;SDS011;27271;45.412;10.852;2023-12-14T11:35:09;52.80;;;22.35;;
41546;SDS011;27271;45.412;10.852;2023-12-14T11:38:33;47.38;;;21.98;;
41546;SDS011;27271;45.412;10.852;2023-12-14T11:42:00;57.33;;;23.15;;
41546;SDS011;27271;45.412;10.852;2023-12-14T11:45:26;51.55;;;23.25;;
41546;SDS011;27271;45.412;10.852;2023-12-14T11:48:49;56.63;;;22.75;;
41546;SDS011;27271;45.412;10.852;2023-12-14T11:52:12;50.42;;;23.10;;
41546;SDS011;27271;45.412;10.852;2023-12-14T11:55:34;54.97;;;23.15;;
41546;SDS011;27271;45.412;10.852;2023-12-14T11:58:58;54.97;;;23.90;;
41546;SDS011;27271;45.412;10.852;2023-12-14T12:02:24;61.08;;;23.45;;
41546;SDS011;27271;45.412;10.852;2023-12-14T12:05:48;62.30;;;25.15;;
41546;SDS011;27271;45.412;10.852;2023-12-14T12:09:31;56.17;;;24.90;;
41546;SDS011;27271;45.412;10.852;2023-12-14T12:13:04;56.53;;;25.80;;
41546;SDS011;27271;45.412;10.852;2023-12-14T12:16:28;61.75;;;27.48;;
41546;SDS011;27271;45.412;10.852;2023-12-14T12:19:51;60.15;;;29.42;;
41546;SDS011;27271;45.412;10.852;2023-12-14T12:23:13;62.92;;;29.85;;
41546;SDS011;27271;45.412;10.852;2023-12-14T12:26:35;57.13;;;27.15;;
41546;SDS011;27271;45.412;10.852;2023-12-14T12:30:04;60.22;;;29.90;;
41546;SDS011;27271;45.412;10.852;2023-12-14T12:33:26;59.97;;;27.88;;
41546;SDS011;27271;45.412;10.852;2023-12-14T12:36:49;60.33;;;29.08;;
41546;SDS011;27271;45.412;10.852;2023-12-14T12:40:11;65.82;;;29.70;;
41546;SDS011;27271;45.412;10.852;2023-12-14T12:43:34;63.58;;;29.33;;
41546;SDS011;27271;45.412;10.852;2023-12-14T12:46:56;65.32;;;29.55;;
41546;SDS011;27271;45.412;10.852;2023-12-14T12:50:31;65.60;;;31.05;;
41546;SDS011;27271;45.412;10.852;2023-12-14T12:53:54;77.60;;;34.67;;
41546;SDS011;27271;45.412;10.852;2023-12-14T12:57:30;81.85;;;35.30;;
41546;SDS011;27271;45.412;10.852;2023-12-14T13:00:54;73.50;;;34.17;;
41546;SDS011;27271;45.412;10.852;2023-12-14T13:04:17;81.82;;;34.67;;
41546;SDS011;27271;45.412;10.852;2023-12-14T13:07:43;83.43;;;35.00;;
41546;SDS011;27271;45.412;10.852;2023-12-14T13:11:18;90.82;;;38.65;;
41546;SDS011;27271;45.412;10.852;2023-12-14T13:14:48;86.20;;;36.03;;
41546;SDS011;27271;45.412;10.852;2023-12-14T13:18:11;91.72;;;37.70;;
41546;SDS011;27271;45.412;10.852;2023-12-14T13:21:33;83.78;;;38.33;;
41546;SDS011;27271;45.412;10.852;2023-12-14T13:24:55;85.68;;;36.72;;
41546;SDS011;27271;45.412;10.852;2023-12-14T13:28:18;91.15;;;38.45;;
41546;SDS011;27271;45.412;10.852;2023-12-14T13:31:40;89.05;;;37.75;;
41546;SDS011;27271;45.412;10.852;2023-12-14T13:35:06;86.45;;;37.47;;
41546;SDS011;27271;45.412;10.852;2023-12-14T13:38:38;84.18;;;37.30;;
41546;SDS011;27271;45.412;10.852;2023-12-14T13:42:17;94.78;;;37.38;;
41546;SDS011;27271;45.412;10.852;2023-12-14T13:45:44;89.70;;;36.80;;
41546;SDS011;27271;45.412;10.852;2023-12-14T13:49:13;91.47;;;36.67;;
41546;SDS011;27271;45.412;10.852;2023-12-14T13:52:36;98.45;;;38.85;;
41546;SDS011;27271;45.412;10.852;2023-12-14T13:55:58;88.05;;;38.55;;
41546;SDS011;27271;45.412;10.852;2023-12-14T13:59:21;89.25;;;37.05;;
41546;SDS011;27271;45.412;10.852;2023-12-14T14:02:43;89.57;;;36.65;;
41546;SDS011;27271;45.412;10.852;2023-12-14T14:06:05;85.18;;;37.20;;
41546;SDS011;27271;45.412;10.852;2023-12-14T14:09:28;87.72;;;36.67;;
41546;SDS011;27271;45.412;10.852;2023-12-14T14:12:51;87.93;;;38.33;;
41546;SDS011;27271;45.412;10.852;2023-12-14T14:16:14;80.55;;;35.83;;
41546;SDS011;27271;45.412;10.852;2023-12-14T14:19:37;94.40;;;39.50;;
41546;SDS011;27271;45.412;10.852;2023-12-14T14:22:59;104.78;;;37.30;;
41546;SDS011;27271;45.412;10.852;2023-12-14T14:26:22;93.30;;;37.42;;
41546;SDS011;27271;45.412;10.852;2023-12-14T14:29:44;102.57;;;36.22;;
41546;SDS011;27271;45.412;10.852;2023-12-14T14:33:06;144.48;;;35.13;;
41546;SDS011;27271;45.412;10.852;2023-12-14T14:36:28;150.90;;;36.08;;
41546;SDS011;27271;45.412;10.852;2023-12-14T14:39:50;115.65;;;34.50;;
41546;SDS011;27271;45.412;10.852;2023-12-14T14:43:13;103.75;;;35.10;;
41546;SDS011;27271;45.412;10.852;2023-12-14T14:46:35;96.57;;;32.03;;
41546;SDS011;27271;45.412;10.852;2023-12-14T14:49:58;97.97;;;31.58;;
41546;SDS011;27271;45.412;10.852;2023-12-14T14:53:25;135.35;;;34.42;;
41546;SDS011;27271;45.412;10.852;2023-12-14T14:56:47;88.35;;;31.35;;
41546;SDS011;27271;45.412;10.852;2023-12-14T15:00:09;66.32;;;27.65;;
41546;SDS011;27271;45.412;10.852;2023-12-14T15:03:32;71.47;;;31.38;;
41546;SDS011;27271;45.412;10.852;2023-12-14T15:06:54;83.05;;;30.90;;
41546;SDS011;27271;45.412;10.852;2023-12-14T15:10:16;96.85;;;35.08;;
41546;SDS011;27271;45.412;10.852;2023-12-14T15:13:39;94.65;;;38.30;;
41546;SDS011;27271;45.412;10.852;2023-12-14T15:17:02;92.43;;;37.22;;
41546;SDS011;27271;45.412;10.852;2023-12-14T15:20:24;90.55;;;38.20;;
41546;SDS011;27271;45.412;10.852;2023-12-14T15:23:46;103.65;;;39.55;;
41546;SDS011;27271;45.412;10.852;2023-12-14T15:27:10;102.90;;;39.40;;
41546;SDS011;27271;45.412;10.852;2023-12-14T15:30:32;100.53;;;37.10;;
41546;SDS011;27271;45.412;10.852;2023-12-14T15:33:55;105.30;;;40.67;;
41546;SDS011;27271;45.412;10.852;2023-12-14T15:37:18;106.55;;;37.75;;
41546;SDS011;27271;45.412;10.852;2023-12-14T15:40:40;99.60;;;38.30;;
41546;SDS011;27271;45.412;10.852;2023-12-14T15:44:02;109.55;;;40.00;;
41546;SDS011;27271;45.412;10.852;2023-12-14T15:47:24;106.65;;;40.17;;
41546;SDS011;27271;45.412;10.852;2023-12-14T15:50:48;104.60;;;39.85;;
41546;SDS011;27271;45.412;10.852;2023-12-14T15:54:14;99.88;;;40.03;;
41546;SDS011;27271;45.412;10.852;2023-12-14T15:57:36;105.63;;;40.08;;
41546;SDS011;27271;45.412;10.852;2023-12-14T16:01:08;107.35;;;40.58;;
41546;SDS011;27271;45.412;10.852;2023-12-14T16:04:32;111.05;;;39.97;;
41546;SDS011;27271;45.412;10.852;2023-12-14T16:07:55;118.90;;;42.13;;
41546;SDS011;27271;45.412;10.852;2023-12-14T16:11:18;117.45;;;40.15;;
41546;SDS011;27271;45.412;10.852;2023-12-14T16:14:46;115.25;;;39.97;;
41546;SDS011;27271;45.412;10.852;2023-12-14T16:18:16;144.10;;;36.60;;
41546;SDS011;27271;45.412;10.852;2023-12-14T16:21:40;127.90;;;33.08;;
41546;SDS011;27271;45.412;10.852;2023-12-14T16:25:05;102.13;;;33.13;;
41546;SDS011;27271;45.412;10.852;2023-12-14T16:28:30;94.15;;;31.23;;
41546;SDS011;27271;45.412;10.852;2023-12-14T16:32:08;107.45;;;40.20;;
41546;SDS011;27271;45.412;10.852;2023-12-14T16:35:35;108.30;;;37.60;;
41546;SDS011;27271;45.412;10.852;2023-12-14T16:39:13;129.32;;;40.53;;
41546;SDS011;27271;45.412;10.852;2023-12-14T16:42:44;127.65;;;38.30;;
41546;SDS011;27271;45.412;10.852;2023-12-14T16:46:12;113.55;;;38.60;;
41546;SDS011;27271;45.412;10.852;2023-12-14T16:49:40;115.88;;;37.22;;
41546;SDS011;27271;45.412;10.852;2023-12-14T16:53:03;101.22;;;37.78;;
41546;SDS011;27271;45.412;10.852;2023-12-14T16:56:32;106.20;;;39.22;;
41546;SDS011;27271;45.412;10.852;2023-12-14T16:59:56;116.63;;;39.47;;
41546;SDS011;27271;45.412;10.852;2023-12-14T17:03:18;138.20;;;39.60;;
41546;SDS011;27271;45.412;10.852;2023-12-14T17:06:41;162.00;;;40.90;;
41546;SDS011;27271;45.412;10.852;2023-12-14T17:10:06;108.32;;;38.40;;
41546;SDS011;27271;45.412;10.852;2023-12-14T17:13:29;113.85;;;39.78;;
41546;SDS011;27271;45.412;10.852;2023-12-14T17:16:51;108.72;;;38.97;;
41546;SDS011;27271;45.412;10.852;2023-12-14T17:20:15;140.05;;;41.50;;
41546;SDS011;27271;45.412;10.852;2023-12-14T17:23:37;154.77;;;40.47;;
41546;SDS011;27271;45.412;10.852;2023-12-14T17:26:59;142.88;;;38.97;;
41546;SDS011;27271;45.412;10.852;2023-12-14T17:30:21;143.60;;;39.00;;
41546;SDS011;27271;45.412;10.852;2023-12-14T17:33:44;125.35;;;37.58;;
41546;SDS011;27271;45.412;10.852;2023-12-14T17:37:06;161.45;;;39.17;;
41546;SDS011;27271;45.412;10.852;2023-12-14T17:40:28;153.57;;;36.47;;
41546;SDS011;27271;45.412;10.852;2023-12-14T17:43:53;106.60;;;35.80;;
41546;SDS011;27271;45.412;10.852;2023-12-14T17:47:15;106.50;;;37.15;;
41546;SDS011;27271;45.412;10.852;2023-12-14T17:50:37;94.00;;;35.75;;
41546;SDS011;27271;45.412;10.852;2023-12-14T17:54:03;114.97;;;39.05;;
41546;SDS011;27271;45.412;10.852;2023-12-14T17:57:25;95.75;;;36.30;;
41546;SDS011;27271;45.412;10.852;2023-12-14T18:00:47;97.85;;;36.20;;
41546;SDS011;27271;45.412;10.852;2023-12-14T18:04:13;86.50;;;36.70;;
41546;SDS011;27271;45.412;10.852;2023-12-14T18:07:35;85.82;;;36.95;;
41546;SDS011;27271;45.412;10.852;2023-12-14T18:10:58;98.15;;;37.17;;
41546;SDS011;27271;45.412;10.852;2023-12-14T18:14:21;83.93;;;36.83;;
41546;SDS011;27271;45.412;10.852;2023-12-14T18:17:44;100.55;;;38.08;;
41546;SDS011;27271;45.412;10.852;2023-12-14T18:21:07;98.85;;;38.97;;
41546;SDS011;27271;45.412;10.852;2023-12-14T18:24:32;110.43;;;39.85;;
41546;SDS011;27271;45.412;10.852;2023-12-14T18:27:54;110.63;;;40.05;;
41546;SDS011;27271;45.412;10.852;2023-12-14T18:31:20;129.43;;;42.78;;
41546;SDS011;27271;45.412;10.852;2023-12-14T18:34:42;112.97;;;37.40;;
41546;SDS011;27271;45.412;10.852;2023-12-14T18:38:05;123.30;;;40.53;;
41546;SDS011;27271;45.412;10.852;2023-12-14T18:41:28;119.50;;;39.97;;
41546;SDS011;27271;45.412;10.852;2023-12-14T18:44:50;118.50;;;38.13;;
41546;SDS011;27271;45.412;10.852;2023-12-14T18:48:12;170.35;;;41.15;;
41546;SDS011;27271;45.412;10.852;2023-12-14T18:51:37;127.00;;;41.83;;
41546;SDS011;27271;45.412;10.852;2023-12-14T18:55:00;111.00;;;39.33;;
41546;SDS011;27271;45.412;10.852;2023-12-14T18:58:22;133.60;;;39.33;;
41546;SDS011;27271;45.412;10.852;2023-12-14T19:01:48;153.50;;;43.90;;
41546;SDS011;27271;45.412;10.852;2023-12-14T19:05:11;154.43;;;40.85;;
41546;SDS011;27271;45.412;10.852;2023-12-14T19:08:35;160.25;;;40.35;;
41546;SDS011;27271;45.412;10.852;2023-12-14T19:12:00;136.43;;;40.17;;
41546;SDS011;27271;45.412;10.852;2023-12-14T19:15:22;126.20;;;39.80;;
41546;SDS011;27271;45.412;10.852;2023-12-14T19:18:44;114.82;;;40.22;;
41546;SDS011;27271;45.412;10.852;2023-12-14T19:22:07;122.20;;;39.00;;
41546;SDS011;27271;45.412;10.852;2023-12-14T19:25:30;112.78;;;36.53;;
41546;SDS011;27271;45.412;10.852;2023-12-14T19:28:55;114.13;;;35.10;;
41546;SDS011;27271;45.412;10.852;2023-12-14T19:32:19;115.80;;;33.17;;
41546;SDS011;27271;45.412;10.852;2023-12-14T19:35:42;116.68;;;33.10;;
41546;SDS011;27271;45.412;10.852;2023-12-14T19:39:04;141.18;;;45.90;;
41546;SDS011;27271;45.412;10.852;2023-12-14T19:42:28;169.23;;;44.35;;
41546;SDS011;27271;45.412;10.852;2023-12-14T19:45:52;64.93;;;27.95;;
41546;SDS011;27271;45.412;10.852;2023-12-14T19:49:14;89.40;;;31.42;;
41546;SDS011;27271;45.412;10.852;2023-12-14T19:52:36;106.00;;;32.40;;
41546;SDS011;27271;45.412;10.852;2023-12-14T19:56:00;94.22;;;34.92;;
41546;SDS011;27271;45.412;10.852;2023-12-14T19:59:23;139.35;;;34.55;;
41546;SDS011;27271;45.412;10.852;2023-12-14T20:02:45;117.05;;;31.05;;
41546;SDS011;27271;45.412;10.852;2023-12-14T20:06:07;104.95;;;30.48;;
41546;SDS011;27271;45.412;10.852;2023-12-14T20:09:35;156.73;;;32.95;;
41546;SDS011;27271;45.412;10.852;2023-12-14T20:13:06;115.97;;;30.67;;
41546;SDS011;27271;45.412;10.852;2023-12-14T20:16:31;164.02;;;33.35;;
41546;SDS011;27271;45.412;10.852;2023-12-14T20:19:53;130.82;;;30.02;;
41546;SDS011;27271;45.412;10.852;2023-12-14T20:23:15;159.98;;;33.63;;
41546;SDS011;27271;45.412;10.852;2023-12-14T20:26:37;158.55;;;32.35;;
41546;SDS011;27271;45.412;10.852;2023-12-14T20:30:00;224.95;;;35.42;;
41546;SDS011;27271;45.412;10.852;2023-12-14T20:33:25;155.02;;;34.58;;
41546;SDS011;27271;45.412;10.852;2023-12-14T20:36:48;144.88;;;35.03;;
41546;SDS011;27271;45.412;10.852;2023-12-14T20:40:12;131.35;;;33.42;;
41546;SDS011;27271;45.412;10.852;2023-12-14T20:43:38;200.07;;;35.13;;
41546;SDS011;27271;45.412;10.852;2023-12-14T20:47:00;240.23;;;35.33;;
41546;SDS011;27271;45.412;10.852;2023-12-14T20:50:22;185.65;;;33.42;;
41546;SDS011;27271;45.412;10.852;2023-12-14T20:53:45;116.13;;;26.42;;
41546;SDS011;27271;45.412;10.852;2023-12-14T20:57:08;195.60;;;30.83;;
41546;SDS011;27271;45.412;10.852;2023-12-14T21:00:31;174.00;;;30.60;;
41546;SDS011;27271;45.412;10.852;2023-12-14T21:03:53;127.50;;;28.23;;
41546;SDS011;27271;45.412;10.852;2023-12-14T21:07:15;94.43;;;28.52;;
41546;SDS011;27271;45.412;10.852;2023-12-14T21:10:39;156.23;;;33.22;;
41546;SDS011;27271;45.412;10.852;2023-12-14T21:14:02;130.82;;;29.05;;
41546;SDS011;27271;45.412;10.852;2023-12-14T21:17:24;151.05;;;33.08;;
41546;SDS011;27271;45.412;10.852;2023-12-14T21:20:47;189.90;;;32.15;;
41546;SDS011;27271;45.412;10.852;2023-12-14T21:24:12;176.35;;;32.83;;
41546;SDS011;27271;45.412;10.852;2023-12-14T21:27:38;134.02;;;29.83;;
41546;SDS011;27271;45.412;10.852;2023-12-14T21:31:07;125.03;;;29.75;;
41546;SDS011;27271;45.412;10.852;2023-12-14T21:34:29;134.50;;;28.67;;
41546;SDS011;27271;45.412;10.852;2023-12-14T21:37:52;125.28;;;29.58;;
41546;SDS011;27271;45.412;10.852;2023-12-14T21:41:14;140.25;;;29.27;;
41546;SDS011;27271;45.412;10.852;2023-12-14T21:44:36;131.80;;;29.40;;
41546;SDS011;27271;45.412;10.852;2023-12-14T21:47:59;111.05;;;29.58;;
41546;SDS011;27271;45.412;10.852;2023-12-14T21:51:22;128.15;;;27.25;;
41546;SDS011;27271;45.412;10.852;2023-12-14T21:54:44;130.60;;;28.48;;
41546;SDS011;27271;45.412;10.852;2023-12-14T21:58:06;124.93;;;30.33;;
41546;SDS011;27271;45.412;10.852;2023-12-14T22:01:29;88.93;;;30.83;;
41546;SDS011;27271;45.412;10.852;2023-12-14T22:04:51;113.47;;;28.20;;
41546;SDS011;27271;45.412;10.852;2023-12-14T22:08:13;157.55;;;29.95;;
41546;SDS011;27271;45.412;10.852;2023-12-14T22:11:35;140.25;;;30.73;;
41546;SDS011;27271;45.412;10.852;2023-12-14T22:14:57;97.80;;;29.77;;
41546;SDS011;27271;45.412;10.852;2023-12-14T22:18:20;161.63;;;29.48;;
41546;SDS011;27271;45.412;10.852;2023-12-14T22:21:42;124.72;;;29.33;;
41546;SDS011;27271;45.412;10.852;2023-12-14T22:25:04;130.18;;;29.05;;
41546;SDS011;27271;45.412;10.852;2023-12-14T22:28:27;164.48;;;31.10;;
41546;SDS011;27271;45.412;10.852;2023-12-14T22:31:49;152.70;;;30.70;;
41546;SDS011;27271;45.412;10.852;2023-12-14T22:35:11;165.57;;;29.48;;
41546;SDS011;27271;45.412;10.852;2023-12-14T22:38:34;141.30;;;28.17;;
41546;SDS011;27271;45.412;10.852;2023-12-14T22:41:56;131.48;;;28.50;;
41546;SDS011;27271;45.412;10.852;2023-12-14T22:45:19;135.85;;;28.45;;
41546;SDS011;27271;45.412;10.852;2023-12-14T22:48:41;143.52;;;27.52;;
41546;SDS011;27271;45.412;10.852;2023-12-14T22:52:03;114.78;;;27.13;;
41546;SDS011;27271;45.412;10.852;2023-12-14T22:55:26;95.18;;;26.17;;
41546;SDS011;27271;45.412;10.852;2023-12-14T22:58:49;128.00;;;27.40;;
41546;SDS011;27271;45.412;10.852;2023-12-14T23:02:14;156.90;;;29.58;;
41546;SDS011;27271;45.412;10.852;2023-12-14T23:05:38;90.03;;;27.00;;
41546;SDS011;27271;45.412;10.852;2023-12-14T23:09:01;105.45;;;26.83;;
41546;SDS011;27271;45.412;10.852;2023-12-14T23:12:25;106.93;;;27.70;;
41546;SDS011;27271;45.412;10.852;2023-12-14T23:15:48;90.13;;;25.80;;
41546;SDS011;27271;45.412;10.852;2023-12-14T23:19:10;114.53;;;25.90;;
41546;SDS011;27271;45.412;10.852;2023-12-14T23:22:32;92.28;;;25.92;;
41546;SDS011;27271;45.412;10.852;2023-12-14T23:25:55;124.47;;;26.30;;
41546;SDS011;27271;45.412;10.852;2023-12-14T23:29:17;102.75;;;25.15;;
